OMDB/DXB METAR and TAF weather

Enter ICAO airport designator
Station Type Date Time Source
OMDB METAR 2019/08/22 04:00 UTC NOAA

OMDB 220400Z VRB03KT 7000 NSC 34/25 Q1002 NOSIG


Station Type Date Time Source
OMDB Decoded METAR 2019/08/22 04:00 UTC NOAA

Station name not available
Aug 22, 2019 - 12:00 AM EDT / 2019.08.22 0400 UTC
Wind: Variable at 3 MPH (3 KT):0
Visibility: 4 mile(s):0
Temperature: 93 F (34 C)
Heat index: 106.7 F (41.5 C):1
Dew Point: 77 F (25 C)
Relative Humidity: 59%
Pressure (altimeter): 29.59 in. Hg (1002 hPa)
ob: OMDB 220400Z VRB03KT 7000 NSC 34/25 Q1002 NOSIG
cycle: 4

Station Type Date Time Source
OMDB TAF 2019/08/21 18:03 UTC NOAA

TAF OMDB 211702Z 2118/2300 35010KT 8000 NSC
BECMG 2118/2120 07005KT PROB30 2201/2204 4000 HZ
BECMG 2204/2206 17010KT
BECMG 2208/2210 33012KT
BECMG 2215/2217 06005KT

Example: see airport list